Time;durP1;ratioP1;P1;durP2;ratioP2;P2;SDS_P1;SDS_P2;PMS_P1;PMS_P2;Temp;Humidity;BMP_temperature;BMP_pressure;BME280_temperature;BME280_humidity;BME280_pressure;Samples;Min_cycle;Max_cycle;Signal;HPM_P1;HPM_P2
2023/01/10 00:01:07;;;;;;;1.88;1.50;;;;;;;;;;4187587;28;20405;-37
2023/01/10 00:03:09;;;;;;;1.30;1.20;;;;;;;;;;4198587;28;20489;-37
2023/01/10 00:05:10;;;;;;;1.98;1.38;;;;;;;;;;4180723;28;20103;-36
2023/01/10 00:07:12;;;;;;;1.77;1.20;;;;;;;;;;4198695;28;20049;-37
2023/01/10 00:09:13;;;;;;;1.70;1.30;;;;;;;;;;4197528;28;20068;-37
2023/01/10 00:13:35;;;;;;;2.38;1.48;;;;;;;;;;4198711;28;20052;-37
2023/01/10 00:15:36;;;;;;;2.83;1.65;;;;;;;;;;4198533;28;20098;-36
2023/01/10 00:17:37;;;;;;;2.13;1.52;;;;;;;;;;4191231;28;20051;-40
2023/01/10 00:19:39;;;;;;;1.48;1.33;;;;;;;;;;4180655;28;20080;-37
2023/01/10 00:21:40;;;;;;;1.95;1.50;;;;;;;;;;4198548;28;20060;-36
2023/01/10 00:23:43;;;;;;;1.95;1.30;;;;;;;;;;4180612;28;20107;-37
2023/01/10 00:25:45;;;;;;;3.15;1.98;;;;;;;;;;4179890;28;20061;-37
2023/01/10 00:30:13;;;;;;;1.67;1.30;;;;;;;;;;4193236;28;20048;-37
2023/01/10 00:32:14;;;;;;;1.63;1.30;;;;;;;;;;4199828;28;20053;-37
2023/01/10 00:34:16;;;;;;;1.60;1.40;;;;;;;;;;4203693;28;20125;-37
2023/01/10 00:36:17;;;;;;;1.20;1.10;;;;;;;;;;4180497;28;20103;-37
2023/01/10 00:38:19;;;;;;;2.15;1.70;;;;;;;;;;4198311;28;20507;-37
2023/01/10 00:40:20;;;;;;;1.95;1.20;;;;;;;;;;4179576;28;20089;-37
2023/01/10 00:44:42;;;;;;;1.30;1.08;;;;;;;;;;4205933;28;20337;-37
2023/01/10 00:46:43;;;;;;;1.73;1.20;;;;;;;;;;4180301;28;20061;-37
2023/01/10 00:48:44;;;;;;;1.60;1.33;;;;;;;;;;4200569;28;20049;-37
2023/01/10 00:50:45;;;;;;;1.42;1.30;;;;;;;;;;4203489;28;20556;-37
2023/01/10 00:52:47;;;;;;;2.25;1.60;;;;;;;;;;4198186;28;20126;-39
2023/01/10 00:54:48;;;;;;;2.00;1.50;;;;;;;;;;4205631;28;20061;-37
2023/01/10 00:56:49;;;;;;;2.17;1.52;;;;;;;;;;4198096;28;20446;-37
2023/01/10 00:58:51;;;;;;;1.60;1.40;;;;;;;;;;4180402;28;20057;-37
2023/01/10 01:00:52;;;;;;;1.98;1.40;;;;;;;;;;4205749;28;20060;-37
2023/01/10 01:02:53;;;;;;;1.52;1.35;;;;;;;;;;4197901;28;20143;-41
2023/01/10 01:04:55;;;;;;;2.40;1.50;;;;;;;;;;4197520;28;20167;-36
2023/01/10 01:06:56;;;;;;;1.85;1.40;;;;;;;;;;4180276;28;20060;-37
2023/01/10 01:08:57;;;;;;;1.42;1.20;;;;;;;;;;4192826;28;20110;-37
2023/01/10 01:10:58;;;;;;;1.98;1.40;;;;;;;;;;4179773;28;20080;-37
2023/01/10 01:13:06;;;;;;;1.85;1.40;;;;;;;;;;4202378;28;20108;-36
2023/01/10 01:15:08;;;;;;;1.77;1.38;;;;;;;;;;4189792;28;20462;-37
2023/01/10 01:17:09;;;;;;;1.73;1.40;;;;;;;;;;4204396;28;20419;-36
2023/01/10 01:19:11;;;;;;;1.80;1.38;;;;;;;;;;4198758;28;20059;-37
2023/01/10 01:21:12;;;;;;;1.75;1.60;;;;;;;;;;4206049;28;20052;-42
2023/01/10 01:23:16;;;;;;;1.52;1.30;;;;;;;;;;4197466;28;20056;-38
2023/01/10 01:25:17;;;;;;;1.58;1.48;;;;;;;;;;4203076;28;20098;-37
2023/01/10 01:27:19;;;;;;;1.95;1.40;;;;;;;;;;4199772;28;20055;-37
2023/01/10 01:29:21;;;;;;;2.33;1.60;;;;;;;;;;4188077;28;20057;-37
2023/01/10 01:31:22;;;;;;;2.17;1.45;;;;;;;;;;4205866;28;20063;-37
2023/01/10 01:33:23;;;;;;;1.67;1.23;;;;;;;;;;4162984;28;20551;-37
2023/01/10 01:35:25;;;;;;;1.90;1.45;;;;;;;;;;4197412;28;20052;-37
2023/01/10 01:37:26;;;;;;;1.85;1.30;;;;;;;;;;4189701;28;20048;-36
2023/01/10 01:39:28;;;;;;;1.50;1.40;;;;;;;;;;4178762;28;20401;-36
2023/01/10 01:44:05;;;;;;;1.77;1.60;;;;;;;;;;4198944;28;20561;-37
2023/01/10 01:46:06;;;;;;;2.10;1.40;;;;;;;;;;4197061;28;20342;-37
2023/01/10 01:48:23;;;;;;;1.98;1.50;;;;;;;;;;4197130;28;20237;-37
2023/01/10 01:50:54;;;;;;;1.63;1.42;;;;;;;;;;4206192;28;20125;-39
2023/01/10 01:52:57;;;;;;;2.25;1.45;;;;;;;;;;4189140;28;20057;-37
2023/01/10 01:54:58;;;;;;;1.67;1.55;;;;;;;;;;4178741;28;20115;-37
2023/01/10 01:57:03;;;;;;;1.40;1.20;;;;;;;;;;4177316;28;20107;-37
2023/01/10 01:59:09;;;;;;;2.25;1.90;;;;;;;;;;4210269;28;20059;-37
2023/01/10 02:01:11;;;;;;;1.23;1.02;;;;;;;;;;4196947;28;20063;-37
2023/01/10 02:03:13;;;;;;;2.15;1.55;;;;;;;;;;4179081;28;20539;-37
2023/01/10 02:05:16;;;;;;;1.67;1.50;;;;;;;;;;4179165;28;20056;-39
2023/01/10 02:07:18;;;;;;;1.58;1.23;;;;;;;;;;4162070;28;20334;-37
2023/01/10 02:09:23;;;;;;;2.28;1.35;;;;;;;;;;4165877;28;20594;-36
2023/01/10 02:11:24;;;;;;;1.48;1.30;;;;;;;;;;4204264;28;20360;-37
2023/01/10 02:13:26;;;;;;;1.48;1.38;;;;;;;;;;4203013;28;20056;-37
2023/01/10 02:15:28;;;;;;;1.63;1.20;;;;;;;;;;4196375;28;20373;-36
2023/01/10 02:17:29;;;;;;;1.33;1.17;;;;;;;;;;4192230;28;20087;-37
2023/01/10 02:19:52;;;;;;;1.40;1.25;;;;;;;;;;4203113;28;20556;-37
2023/01/10 02:22:24;;;;;;;1.95;1.42;;;;;;;;;;4200780;28;20431;-37
2023/01/10 02:24:40;;;;;;;2.25;1.55;;;;;;;;;;4185780;28;20094;-37
2023/01/10 02:26:56;;;;;;;1.73;1.40;;;;;;;;;;4196666;28;20506;-36
2023/01/10 02:29:18;;;;;;;2.05;1.23;;;;;;;;;;4196131;28;20071;-37
2023/01/10 02:31:57;;;;;;;1.80;1.50;;;;;;;;;;4196686;28;20056;-36
2023/01/10 02:34:23;;;;;;;1.20;1.10;;;;;;;;;;4183475;28;20102;-36
2023/01/10 02:36:44;;;;;;;1.63;1.50;;;;;;;;;;4178773;28;20052;-37
2023/01/10 02:38:53;;;;;;;1.77;1.15;;;;;;;;;;4209537;28;20141;-37
2023/01/10 02:41:29;;;;;;;1.73;1.20;;;;;;;;;;4168632;28;20049;-37
2023/01/10 02:43:34;;;;;;;2.05;1.30;;;;;;;;;;4148740;28;20057;-36
2023/01/10 02:45:40;;;;;;;2.10;1.70;;;;;;;;;;4184928;28;20056;-37
2023/01/10 02:47:41;;;;;;;2.10;1.33;;;;;;;;;;4178641;28;20048;-37
2023/01/10 02:49:47;;;;;;;1.65;1.35;;;;;;;;;;4178383;28;20057;-36
2023/01/10 02:51:49;;;;;;;1.83;1.20;;;;;;;;;;4196198;28;20056;-37
2023/01/10 02:53:55;;;;;;;1.73;1.20;;;;;;;;;;4196290;28;20052;-37
2023/01/10 02:56:19;;;;;;;1.50;1.40;;;;;;;;;;4195929;28;20067;-37
2023/01/10 02:58:32;;;;;;;1.77;1.30;;;;;;;;;;4179720;28;20436;-36
2023/01/10 03:00:44;;;;;;;2.35;1.27;;;;;;;;;;4188507;28;20497;-37
2023/01/10 03:03:16;;;;;;;2.15;1.48;;;;;;;;;;4178341;28;20478;-37
2023/01/10 03:05:33;;;;;;;1.75;1.48;;;;;;;;;;4173979;28;20052;-37
2023/01/10 03:07:42;;;;;;;2.08;1.38;;;;;;;;;;4177631;28;20163;-37
2023/01/10 03:09:58;;;;;;;1.80;1.33;;;;;;;;;;4208458;28;20052;-37
2023/01/10 03:12:34;;;;;;;1.80;1.27;;;;;;;;;;4201721;28;20052;-37
2023/01/10 03:14:36;;;;;;;1.25;1.10;;;;;;;;;;4114662;28;20077;-37
2023/01/10 03:16:40;;;;;;;1.40;1.27;;;;;;;;;;4145178;28;20114;-37
2023/01/10 03:18:51;;;;;;;1.70;1.23;;;;;;;;;;4187321;28;20052;-37
2023/01/10 03:20:54;;;;;;;1.60;1.20;;;;;;;;;;4207370;28;20059;-37
2023/01/10 03:22:55;;;;;;;1.70;1.10;;;;;;;;;;4179755;28;20052;-37
2023/01/10 03:24:58;;;;;;;1.60;1.20;;;;;;;;;;4182970;28;20056;-37
2023/01/10 03:27:09;;;;;;;1.52;1.35;;;;;;;;;;4203439;28;20057;-37
2023/01/10 03:29:12;;;;;;;1.67;1.30;;;;;;;;;;4181871;28;20064;-37
2023/01/10 03:31:18;;;;;;;1.50;1.30;;;;;;;;;;4191613;28;20063;-37
2023/01/10 03:33:23;;;;;;;1.42;1.17;;;;;;;;;;4177950;28;20451;-36
2023/01/10 03:36:00;;;;;;;1.10;1.00;;;;;;;;;;4161225;28;20104;-37
2023/01/10 03:38:10;;;;;;;1.33;1.02;;;;;;;;;;4182927;28;20153;-36
2023/01/10 03:40:16;;;;;;;1.70;1.33;;;;;;;;;;4177121;28;20211;-37
2023/01/10 03:45:08;;;;;;;1.58;1.23;;;;;;;;;;4172080;28;20123;-37
2023/01/10 03:47:16;;;;;;;1.63;1.25;;;;;;;;;;4207146;28;20098;-37
2023/01/10 03:49:19;;;;;;;2.35;1.45;;;;;;;;;;4198296;28;20071;-37
2023/01/10 03:51:20;;;;;;;2.08;1.42;;;;;;;;;;4188996;28;20147;-36
2023/01/10 03:53:21;;;;;;;2.40;1.10;;;;;;;;;;4169594;28;20550;-37
2023/01/10 03:55:26;;;;;;;1.85;1.20;;;;;;;;;;4194047;28;20122;-37
2023/01/10 03:57:27;;;;;;;1.67;1.30;;;;;;;;;;4191254;28;20135;-36
2023/01/10 03:59:29;;;;;;;1.52;1.27;;;;;;;;;;4195316;28;20057;-37
2023/01/10 04:01:30;;;;;;;2.70;1.45;;;;;;;;;;4195582;28;20116;-36
2023/01/10 04:03:32;;;;;;;1.35;1.23;;;;;;;;;;4196244;28;20412;-36
2023/01/10 04:05:33;;;;;;;2.15;1.33;;;;;;;;;;4195048;28;20126;-37
2023/01/10 04:07:35;;;;;;;1.38;1.10;;;;;;;;;;4195545;28;20102;-37
2023/01/10 04:09:37;;;;;;;1.80;1.20;;;;;;;;;;4177069;28;20497;-37
2023/01/10 04:11:38;;;;;;;1.15;0.90;;;;;;;;;;4177081;28;20497;-37
2023/01/10 04:13:41;;;;;;;1.70;1.13;;;;;;;;;;4195375;28;20098;-37
2023/01/10 04:15:42;;;;;;;1.90;1.40;;;;;;;;;;4194241;28;20056;-37
2023/01/10 04:17:44;;;;;;;1.35;1.10;;;;;;;;;;4196603;28;20460;-37
2023/01/10 04:19:45;;;;;;;1.33;1.05;;;;;;;;;;4195235;28;20056;-37
2023/01/10 04:21:47;;;;;;;1.77;1.48;;;;;;;;;;4195413;28;20533;-37
2023/01/10 04:23:48;;;;;;;1.30;1.02;;;;;;;;;;4194847;28;20048;-37
2023/01/10 04:25:49;;;;;;;2.78;1.50;;;;;;;;;;4196679;28;20102;-36
2023/01/10 04:27:51;;;;;;;2.03;1.50;;;;;;;;;;4195405;28;20095;-37
2023/01/10 04:29:52;;;;;;;3.45;1.30;;;;;;;;;;4177589;28;20076;-37
2023/01/10 04:31:54;;;;;;;1.67;1.20;;;;;;;;;;4193078;28;20466;-36
2023/01/10 04:33:55;;;;;;;1.27;0.90;;;;;;;;;;4193417;28;20166;-37
2023/01/10 04:35:56;;;;;;;1.40;1.25;;;;;;;;;;4196772;28;20514;-37
2023/01/10 04:37:58;;;;;;;1.27;1.02;;;;;;;;;;4195155;28;20055;-36
2023/01/10 04:39:59;;;;;;;2.08;1.30;;;;;;;;;;4196375;28;20057;-36
2023/01/10 04:42:01;;;;;;;1.85;1.35;;;;;;;;;;4182195;28;20059;-37
2023/01/10 04:44:02;;;;;;;1.17;1.02;;;;;;;;;;4198234;28;20568;-37
2023/01/10 04:46:04;;;;;;;1.33;1.15;;;;;;;;;;4198131;28;20110;-36
2023/01/10 04:48:05;;;;;;;1.25;1.00;;;;;;;;;;4209521;28;20129;-37
2023/01/10 04:50:07;;;;;;;1.00;0.85;;;;;;;;;;4198397;28;20056;-37
2023/01/10 04:52:09;;;;;;;1.38;1.10;;;;;;;;;;4198009;28;20491;-37
2023/01/10 04:54:11;;;;;;;1.52;1.23;;;;;;;;;;4204697;28;20089;-37
2023/01/10 04:56:17;;;;;;;1.23;1.00;;;;;;;;;;4202632;28;20101;-37
2023/01/10 04:58:18;;;;;;;2.28;1.40;;;;;;;;;;4199327;28;20044;-37
2023/01/10 05:00:19;;;;;;;1.83;1.40;;;;;;;;;;4197891;28;20562;-37
2023/01/10 05:02:21;;;;;;;1.20;1.10;;;;;;;;;;4199623;28;20105;-37
2023/01/10 05:04:22;;;;;;;2.00;1.20;;;;;;;;;;4193248;28;20072;-36
2023/01/10 05:06:23;;;;;;;1.38;1.17;;;;;;;;;;4197652;28;20078;-37
2023/01/10 05:08:25;;;;;;;1.55;1.20;;;;;;;;;;4180170;28;20084;-36
2023/01/10 05:10:26;;;;;;;1.88;1.30;;;;;;;;;;4197283;28;20052;-37
2023/01/10 05:12:28;;;;;;;1.30;1.17;;;;;;;;;;4197560;28;20191;-37
2023/01/10 05:14:29;;;;;;;1.35;1.02;;;;;;;;;;4197977;28;20060;-36
2023/01/10 05:16:31;;;;;;;1.55;1.10;;;;;;;;;;4205938;28;20098;-37
2023/01/10 05:18:32;;;;;;;1.48;1.10;;;;;;;;;;4179264;28;20049;-36
2023/01/10 05:20:33;;;;;;;1.65;1.40;;;;;;;;;;4197294;28;20458;-36
2023/01/10 05:22:35;;;;;;;1.13;1.02;;;;;;;;;;4197515;28;20052;-37
2023/01/10 05:24:36;;;;;;;1.45;1.15;;;;;;;;;;4187953;28;20056;-36
2023/01/10 05:26:38;;;;;;;1.55;1.10;;;;;;;;;;4197809;28;20132;-37
2023/01/10 05:28:39;;;;;;;1.55;1.23;;;;;;;;;;4197793;28;20078;-37
2023/01/10 05:30:41;;;;;;;1.35;1.20;;;;;;;;;;4197417;28;20098;-37
2023/01/10 05:32:42;;;;;;;1.42;1.17;;;;;;;;;;4195436;28;20052;-37
2023/01/10 05:34:44;;;;;;;1.15;0.90;;;;;;;;;;4173879;28;20056;-37
2023/01/10 05:36:45;;;;;;;1.70;1.40;;;;;;;;;;4197291;28;20128;-37
2023/01/10 05:38:47;;;;;;;1.27;1.13;;;;;;;;;;4183732;28;20045;-37
2023/01/10 05:40:55;;;;;;;1.60;1.10;;;;;;;;;;4186132;28;20052;-37
2023/01/10 05:42:56;;;;;;;1.25;1.15;;;;;;;;;;4197680;28;20052;-37
2023/01/10 05:44:57;;;;;;;1.52;1.17;;;;;;;;;;4197359;28;20428;-37
2023/01/10 05:46:58;;;;;;;1.30;1.10;;;;;;;;;;4197157;28;20102;-36
2023/01/10 05:49:00;;;;;;;1.77;1.08;;;;;;;;;;4206600;28;20052;-37
2023/01/10 05:51:02;;;;;;;1.27;1.00;;;;;;;;;;4196232;28;20110;-36
2023/01/10 05:53:04;;;;;;;0.77;0.57;;;;;;;;;;4179230;28;20111;-37
2023/01/10 05:55:06;;;;;;;1.20;1.00;;;;;;;;;;4188751;28;20060;-37
2023/01/10 05:57:08;;;;;;;1.25;0.90;;;;;;;;;;4188581;28;20474;-37
2023/01/10 05:59:09;;;;;;;0.98;0.90;;;;;;;;;;4196948;28;20056;-36
2023/01/10 06:01:10;;;;;;;0.50;0.50;;;;;;;;;;4200383;28;20060;-36
2023/01/10 06:03:11;;;;;;;0.80;0.60;;;;;;;;;;4197756;28;20401;-36
2023/01/10 06:05:13;;;;;;;1.23;0.60;;;;;;;;;;4193302;28;20053;-37
2023/01/10 06:07:14;;;;;;;0.88;0.70;;;;;;;;;;4197107;28;20056;-37
2023/01/10 06:09:15;;;;;;;1.58;0.60;;;;;;;;;;4201314;28;20056;-37
2023/01/10 06:11:17;;;;;;;1.05;0.77;;;;;;;;;;4185478;28;20573;-36
2023/01/10 06:13:18;;;;;;;0.80;0.50;;;;;;;;;;4195137;28;20064;-36
2023/01/10 06:15:19;;;;;;;0.60;0.52;;;;;;;;;;4194229;28;20470;-36
2023/01/10 06:17:21;;;;;;;0.57;0.50;;;;;;;;;;4194706;28;20762;-37
2023/01/10 06:19:22;;;;;;;0.60;0.50;;;;;;;;;;4194442;28;20060;-37
2023/01/10 06:21:24;;;;;;;1.05;0.40;;;;;;;;;;4194545;28;20082;-37
2023/01/10 06:23:25;;;;;;;0.63;0.50;;;;;;;;;;4194669;28;20279;-37
2023/01/10 06:25:28;;;;;;;1.50;0.57;;;;;;;;;;4193816;28;20052;-36
2023/01/10 06:27:29;;;;;;;0.82;0.30;;;;;;;;;;4205092;28;20125;-37
2023/01/10 06:29:30;;;;;;;0.50;0.43;;;;;;;;;;4207901;28;20455;-36
2023/01/10 06:31:31;;;;;;;1.02;0.57;;;;;;;;;;4194353;28;20121;-37
2023/01/10 06:33:33;;;;;;;0.98;0.50;;;;;;;;;;4190450;28;20056;-36
2023/01/10 06:35:35;;;;;;;0.93;0.60;;;;;;;;;;4190948;28;20098;-36
2023/01/10 06:37:36;;;;;;;1.60;0.50;;;;;;;;;;4172740;28;20546;-37
2023/01/10 06:39:38;;;;;;;1.15;0.43;;;;;;;;;;4190718;28;20094;-36
2023/01/10 06:41:39;;;;;;;1.35;0.50;;;;;;;;;;4194409;28;20100;-36
2023/01/10 06:43:45;;;;;;;2.08;0.45;;;;;;;;;;4184779;28;20114;-36
2023/01/10 06:45:46;;;;;;;1.98;0.57;;;;;;;;;;4193431;28;20351;-37
2023/01/10 06:47:48;;;;;;;5.75;0.80;;;;;;;;;;4179720;28;20045;-37
2023/01/10 06:49:49;;;;;;;2.47;0.60;;;;;;;;;;4189160;28;20052;-37
2023/01/10 06:51:50;;;;;;;1.27;0.60;;;;;;;;;;4190689;28;20052;-36
2023/01/10 06:53:52;;;;;;;1.45;0.60;;;;;;;;;;4192302;28;20052;-36
2023/01/10 06:55:54;;;;;;;2.78;0.73;;;;;;;;;;4188033;28;20317;-37
2023/01/10 06:57:57;;;;;;;1.90;0.55;;;;;;;;;;4175549;28;20620;-36
2023/01/10 06:59:58;;;;;;;2.85;0.50;;;;;;;;;;4194612;28;20053;-38
2023/01/10 07:01:59;;;;;;;1.55;0.68;;;;;;;;;;4188104;28;20091;-36
2023/01/10 07:04:01;;;;;;;1.27;0.70;;;;;;;;;;4183476;28;20057;-34
2023/01/10 07:06:02;;;;;;;2.15;0.50;;;;;;;;;;4166242;28;20095;-36
2023/01/10 07:08:03;;;;;;;2.17;0.55;;;;;;;;;;4187545;28;20500;-36
2023/01/10 07:10:05;;;;;;;1.23;0.50;;;;;;;;;;4185026;28;20342;-36
2023/01/10 07:12:07;;;;;;;1.35;0.60;;;;;;;;;;4169418;28;20049;-36
2023/01/10 07:14:09;;;;;;;1.92;0.60;;;;;;;;;;4188114;28;20056;-36
2023/01/10 07:16:13;;;;;;;1.90;0.80;;;;;;;;;;4188704;28;20156;-35
2023/01/10 07:18:15;;;;;;;0.75;0.50;;;;;;;;;;4189268;28;20546;-36
2023/01/10 07:20:17;;;;;;;1.67;0.88;;;;;;;;;;4184907;28;20527;-37
2023/01/10 07:22:19;;;;;;;4.20;0.70;;;;;;;;;;4187320;28;20106;-37
2023/01/10 07:24:20;;;;;;;4.38;1.00;;;;;;;;;;4180504;28;20059;-37
2023/01/10 07:26:23;;;;;;;1.52;0.73;;;;;;;;;;4182900;28;20124;-36
2023/01/10 07:28:24;;;;;;;0.57;0.40;;;;;;;;;;4183267;28;20083;-36
2023/01/10 07:30:26;;;;;;;2.00;0.60;;;;;;;;;;4183491;28;20074;-36
2023/01/10 07:32:27;;;;;;;1.33;0.57;;;;;;;;;;4183950;28;20053;-36
2023/01/10 07:34:28;;;;;;;1.88;0.73;;;;;;;;;;4183356;28;20132;-35
2023/01/10 07:36:30;;;;;;;2.20;0.50;;;;;;;;;;4178149;28;20056;-35
2023/01/10 07:38:31;;;;;;;1.90;1.10;;;;;;;;;;4186505;28;20056;-36
2023/01/10 07:40:33;;;;;;;1.73;0.60;;;;;;;;;;4152172;28;20065;-37
2023/01/10 07:42:34;;;;;;;2.75;0.60;;;;;;;;;;4178372;28;20054;-36
2023/01/10 07:44:37;;;;;;;1.85;0.77;;;;;;;;;;4185286;28;20102;-36
2023/01/10 07:46:38;;;;;;;1.67;0.68;;;;;;;;;;4179972;28;20059;-35
2023/01/10 07:48:40;;;;;;;3.05;0.68;;;;;;;;;;4145568;28;20053;-34
2023/01/10 07:50:42;;;;;;;3.33;0.90;;;;;;;;;;4156376;28;20122;-35
2023/01/10 07:52:43;;;;;;;2.38;0.60;;;;;;;;;;4168971;28;20086;-37
2023/01/10 07:54:44;;;;;;;2.60;0.88;;;;;;;;;;4179227;28;20105;-37
2023/01/10 07:56:49;;;;;;;1.77;0.70;;;;;;;;;;4178760;28;21605;-37
2023/01/10 07:58:50;;;;;;;2.03;1.00;;;;;;;;;;4169689;28;20049;-36
2023/01/10 08:00:56;;;;;;;3.30;1.00;;;;;;;;;;4171775;28;20737;-36
2023/01/10 08:02:58;;;;;;;5.78;0.93;;;;;;;;;;4164986;28;20441;-37
2023/01/10 08:04:59;;;;;;;3.28;1.20;;;;;;;;;;4150434;28;20106;-36
2023/01/10 08:07:00;;;;;;;2.17;0.90;;;;;;;;;;4160596;28;20070;-37
2023/01/10 08:09:04;;;;;;;3.70;0.80;;;;;;;;;;4163755;28;20372;-36
2023/01/10 08:11:05;;;;;;;3.72;0.95;;;;;;;;;;4165082;28;20059;-36
2023/01/10 08:13:06;;;;;;;2.67;0.60;;;;;;;;;;4162651;28;20052;-36
2023/01/10 08:15:08;;;;;;;1.08;0.60;;;;;;;;;;4163315;28;20060;-35
2023/01/10 08:17:09;;;;;;;3.63;0.85;;;;;;;;;;4138934;28;20060;-37
2023/01/10 08:19:15;;;;;;;2.75;0.70;;;;;;;;;;4170636;28;20155;-36
2023/01/10 08:21:16;;;;;;;2.60;0.60;;;;;;;;;;4176051;28;20056;-37
2023/01/10 08:23:18;;;;;;;2.13;0.82;;;;;;;;;;4176423;28;20129;-37
2023/01/10 08:25:20;;;;;;;3.45;0.50;;;;;;;;;;4152340;28;21345;-36
2023/01/10 08:27:21;;;;;;;1.10;0.60;;;;;;;;;;4169528;28;20102;-35
2023/01/10 08:29:23;;;;;;;2.42;0.95;;;;;;;;;;4165428;28;20065;-35
2023/01/10 08:31:24;;;;;;;5.05;0.85;;;;;;;;;;4161810;28;20793;-36
2023/01/10 08:33:26;;;;;;;0.77;0.50;;;;;;;;;;4147585;28;20060;-34
2023/01/10 08:35:27;;;;;;;1.10;0.70;;;;;;;;;;4171088;28;20052;-35
2023/01/10 08:37:28;;;;;;;0.90;0.60;;;;;;;;;;4160065;28;20061;-36
2023/01/10 08:39:29;;;;;;;1.60;0.50;;;;;;;;;;4166045;28;20535;-34
2023/01/10 08:41:31;;;;;;;1.23;0.68;;;;;;;;;;4163930;28;20052;-37
2023/01/10 08:43:32;;;;;;;2.63;0.60;;;;;;;;;;4174710;28;20068;-37
2023/01/10 08:45:34;;;;;;;1.60;0.77;;;;;;;;;;4145773;28;20450;-35
2023/01/10 08:47:35;;;;;;;1.27;0.68;;;;;;;;;;4169726;28;20087;-34
2023/01/10 08:49:36;;;;;;;3.00;0.68;;;;;;;;;;4148207;28;20531;-35
2023/01/10 08:51:38;;;;;;;4.10;0.75;;;;;;;;;;4160156;28;20057;-36
2023/01/10 08:53:39;;;;;;;3.15;0.70;;;;;;;;;;4164150;28;20061;-35
2023/01/10 08:55:41;;;;;;;4.15;0.65;;;;;;;;;;4145323;28;20053;-35
2023/01/10 08:57:42;;;;;;;2.88;0.60;;;;;;;;;;4161709;28;20109;-36
2023/01/10 08:59:44;;;;;;;4.93;0.77;;;;;;;;;;4155801;28;20063;-37
2023/01/10 09:01:45;;;;;;;2.00;0.68;;;;;;;;;;4139261;28;20061;-37
2023/01/10 09:03:47;;;;;;;5.25;0.70;;;;;;;;;;4154302;28;20056;-35
2023/01/10 09:05:49;;;;;;;1.67;0.57;;;;;;;;;;4141615;28;20485;-35
2023/01/10 09:07:50;;;;;;;5.93;1.00;;;;;;;;;;4163496;28;20533;-35
2023/01/10 09:09:51;;;;;;;7.07;1.35;;;;;;;;;;4160273;28;20067;-35
2023/01/10 09:11:53;;;;;;;3.75;0.70;;;;;;;;;;4166182;28;21221;-35
2023/01/10 09:13:54;;;;;;;6.50;0.82;;;;;;;;;;4158475;28;20053;-36
2023/01/10 09:15:56;;;;;;;7.10;1.40;;;;;;;;;;4164650;28;20068;-35
2023/01/10 09:18:00;;;;;;;6.13;1.10;;;;;;;;;;4161157;28;20114;-35
2023/01/10 09:20:05;;;;;;;4.03;0.77;;;;;;;;;;4165199;28;20052;-34
2023/01/10 09:22:06;;;;;;;4.20;1.10;;;;;;;;;;4150540;28;20081;-38
2023/01/10 09:24:07;;;;;;;6.15;1.45;;;;;;;;;;4145173;28;20091;-34
2023/01/10 09:26:08;;;;;;;6.00;0.90;;;;;;;;;;4159086;28;21067;-35
2023/01/10 09:28:10;;;;;;;4.05;1.02;;;;;;;;;;4160488;28;20564;-35
2023/01/10 09:30:12;;;;;;;4.72;1.52;;;;;;;;;;4117618;28;20352;-36
2023/01/10 09:32:14;;;;;;;7.15;1.17;;;;;;;;;;4165742;28;20102;-35
2023/01/10 09:34:15;;;;;;;4.93;1.40;;;;;;;;;;4160638;28;20052;-36
2023/01/10 09:36:17;;;;;;;10.25;1.92;;;;;;;;;;4162582;28;20060;-38
2023/01/10 09:38:18;;;;;;;8.43;1.23;;;;;;;;;;4168993;28;20075;-38
2023/01/10 09:40:25;;;;;;;7.45;1.33;;;;;;;;;;4163458;28;20563;-34
2023/01/10 09:42:52;;;;;;;6.13;1.27;;;;;;;;;;4151009;28;20374;-38
2023/01/10 09:45:12;;;;;;;7.40;1.52;;;;;;;;;;4133360;28;20208;-37
2023/01/10 09:47:48;;;;;;;5.68;1.55;;;;;;;;;;4169146;28;20056;-36
2023/01/10 09:50:24;;;;;;;7.97;1.45;;;;;;;;;;4164629;28;20057;-36
2023/01/10 09:52:29;;;;;;;11.20;1.33;;;;;;;;;;4168461;28;20060;-35
2023/01/10 09:54:32;;;;;;;4.15;1.25;;;;;;;;;;4163853;28;20642;-39
2023/01/10 09:56:34;;;;;;;7.85;1.42;;;;;;;;;;4151127;28;20134;-39
2023/01/10 09:58:37;;;;;;;6.05;1.40;;;;;;;;;;4162620;28;20538;-37
2023/01/10 10:00:42;;;;;;;11.88;1.48;;;;;;;;;;4160509;28;20054;-35
2023/01/10 10:02:46;;;;;;;6.47;1.33;;;;;;;;;;4135527;28;20082;-35
2023/01/10 10:05:10;;;;;;;9.38;1.60;;;;;;;;;;4108078;28;20156;-35
2023/01/10 10:07:13;;;;;;;10.30;1.27;;;;;;;;;;4145412;28;20707;-35
2023/01/10 10:09:16;;;;;;;9.95;1.60;;;;;;;;;;4141782;28;20821;-35
2023/01/10 10:11:26;;;;;;;5.80;1.13;;;;;;;;;;4165259;28;20060;-39
2023/01/10 10:13:33;;;;;;;;;;;;;;;;;;4165618;28;20149;-36
2023/01/10 10:15:57;;;;;;;4.90;1.30;;;;;;;;;;4164748;28;19985;-36
2023/01/10 10:18:34;;;;;;;9.15;1.42;;;;;;;;;;4165838;28;20052;-38
2023/01/10 10:20:47;;;;;;;5.78;1.20;;;;;;;;;;4153871;28;20063;-38
2023/01/10 10:23:10;;;;;;;5.63;1.27;;;;;;;;;;4165442;28;20533;-38
2023/01/10 10:25:35;;;;;;;6.57;1.45;;;;;;;;;;4161728;28;20075;-37
2023/01/10 10:28:00;;;;;;;6.35;1.45;;;;;;;;;;4141572;28;20057;-38
2023/01/10 10:30:19;;;;;;;4.72;1.42;;;;;;;;;;4148129;28;21014;-36
2023/01/10 10:32:36;;;;;;;7.10;1.40;;;;;;;;;;4162402;28;20395;-36
2023/01/10 10:34:42;;;;;;;8.73;1.30;;;;;;;;;;4156628;28;20089;-37
2023/01/10 10:36:50;;;;;;;5.97;1.33;;;;;;;;;;4157494;28;20101;-35
2023/01/10 10:38:53;;;;;;;3.33;1.23;;;;;;;;;;4145820;28;21093;-38
2023/01/10 10:40:55;;;;;;;6.72;1.08;;;;;;;;;;4167636;28;20686;-37
2023/01/10 10:42:58;;;;;;;5.88;1.30;;;;;;;;;;4149049;28;20198;-38
2023/01/10 10:45:16;;;;;;;4.68;0.93;;;;;;;;;;4163084;28;20562;-35
2023/01/10 10:47:20;;;;;;;8.63;1.10;;;;;;;;;;4145098;28;20110;-38
2023/01/10 10:49:28;;;;;;;4.15;1.50;;;;;;;;;;4161558;28;20059;-35
2023/01/10 10:51:35;;;;;;;2.28;0.75;;;;;;;;;;4165616;28;20064;-35
2023/01/10 10:53:37;;;;;;;3.85;0.90;;;;;;;;;;4149648;28;20057;-38
2023/01/10 10:55:39;;;;;;;7.18;1.20;;;;;;;;;;4153083;28;20154;-36
2023/01/10 10:57:40;;;;;;;3.28;0.85;;;;;;;;;;4165476;28;20645;-38
2023/01/10 10:59:45;;;;;;;4.88;0.90;;;;;;;;;;4135395;28;20559;-36
2023/01/10 11:01:49;;;;;;;3.15;0.80;;;;;;;;;;4151537;28;20080;-37
2023/01/10 11:03:57;;;;;;;2.58;0.80;;;;;;;;;;4170389;28;20101;-38
2023/01/10 11:05:59;;;;;;;4.25;0.95;;;;;;;;;;4139313;28;20425;-37
2023/01/10 11:08:08;;;;;;;2.25;0.60;;;;;;;;;;4127985;28;20088;-38
2023/01/10 11:10:33;;;;;;;4.30;0.93;;;;;;;;;;4179601;28;20064;-36
2023/01/10 11:12:40;;;;;;;2.95;0.80;;;;;;;;;;4168229;28;20060;-37
2023/01/10 11:14:46;;;;;;;2.15;0.75;;;;;;;;;;4178052;28;20048;-38
2023/01/10 11:16:47;;;;;;;2.30;0.80;;;;;;;;;;4181013;28;20052;-39
2023/01/10 11:19:07;;;;;;;5.35;0.75;;;;;;;;;;4183557;28;20403;-37
2023/01/10 11:21:12;;;;;;;;;;;;;;;;;;4161889;28;20143;-39
2023/01/10 11:23:31;;;;;;;4.38;1.02;;;;;;;;;;4175295;28;19928;-35
2023/01/10 11:25:32;;;;;;;6.65;0.98;;;;;;;;;;4178025;28;20134;-43
2023/01/10 11:27:44;;;;;;;6.18;1.15;;;;;;;;;;4179473;28;20056;-35
2023/01/10 11:29:51;;;;;;;2.38;0.70;;;;;;;;;;4174000;28;21070;-37
2023/01/10 11:31:55;;;;;;;4.93;0.90;;;;;;;;;;4148352;28;20431;-37
2023/01/10 11:33:56;;;;;;;5.90;1.23;;;;;;;;;;4144901;28;20058;-38
2023/01/10 11:36:00;;;;;;;6.93;1.10;;;;;;;;;;4176164;28;20102;-39
2023/01/10 11:38:27;;;;;;;1.73;0.70;;;;;;;;;;4149888;28;20528;-39
2023/01/10 11:40:30;;;;;;;4.72;1.25;;;;;;;;;;4165182;28;20536;-37
2023/01/10 11:42:32;;;;;;;4.30;0.90;;;;;;;;;;4149471;28;20102;-36
2023/01/10 11:44:33;;;;;;;5.25;1.25;;;;;;;;;;4153332;28;20114;-40
2023/01/10 11:46:35;;;;;;;2.05;0.73;;;;;;;;;;4156144;28;20059;-36
2023/01/10 11:48:44;;;;;;;5.32;1.15;;;;;;;;;;4161278;28;20091;-37
2023/01/10 11:50:49;;;;;;;1.63;0.63;;;;;;;;;;4173050;28;20090;-36
2023/01/10 11:52:50;;;;;;;8.77;1.20;;;;;;;;;;4169550;28;20372;-36
2023/01/10 11:54:58;;;;;;;4.70;0.93;;;;;;;;;;4169035;28;21444;-38
2023/01/10 11:57:09;;;;;;;4.10;1.25;;;;;;;;;;4147006;28;20424;-38
2023/01/10 11:59:14;;;;;;;3.60;0.90;;;;;;;;;;4147817;28;20114;-39
2023/01/10 12:01:50;;;;;;;2.13;1.00;;;;;;;;;;4139365;28;20146;-37
2023/01/10 12:03:51;;;;;;;10.40;1.45;;;;;;;;;;4132009;28;20138;-39
2023/01/10 12:05:56;;;;;;;8.45;1.48;;;;;;;;;;4166990;28;20591;-39
2023/01/10 12:07:58;;;;;;;5.85;1.30;;;;;;;;;;4169568;28;20137;-39
2023/01/10 12:10:01;;;;;;;2.47;1.17;;;;;;;;;;4169106;28;20061;-39
2023/01/10 12:12:27;;;;;;;11.98;1.50;;;;;;;;;;4169896;28;20060;-38
2023/01/10 12:14:28;;;;;;;6.07;1.65;;;;;;;;;;4153876;28;20090;-40
2023/01/10 12:16:32;;;;;;;7.32;1.20;;;;;;;;;;4161170;28;20048;-36
2023/01/10 12:18:33;;;;;;;3.88;1.08;;;;;;;;;;4157297;28;20591;-37
2023/01/10 12:20:46;;;;;;;3.80;0.82;;;;;;;;;;4175571;28;20060;-37
2023/01/10 12:22:54;;;;;;;2.95;1.05;;;;;;;;;;4153958;28;20133;-36
2023/01/10 12:24:56;;;;;;;2.35;1.00;;;;;;;;;;4154898;28;20605;-39
2023/01/10 12:26:58;;;;;;;9.20;2.08;;;;;;;;;;4153521;28;20115;-38
2023/01/10 12:29:15;;;;;;;6.13;1.45;;;;;;;;;;4134194;28;21613;-39
2023/01/10 12:31:19;;;;;;;3.03;1.00;;;;;;;;;;4149552;28;20524;-39
2023/01/10 12:33:36;;;;;;;6.07;1.23;;;;;;;;;;4171143;28;20052;-39
2023/01/10 12:35:41;;;;;;;4.53;1.08;;;;;;;;;;4151301;28;20079;-39
2023/01/10 12:37:53;;;;;;;5.65;1.08;;;;;;;;;;4142878;28;20058;-38
2023/01/10 12:39:58;;;;;;;14.30;1.33;;;;;;;;;;4175358;28;20149;-36
2023/01/10 12:44:47;;;;;;;3.55;1.10;;;;;;;;;;4167672;28;20060;-36